Pentraeth, United Kingdom
Current Conditions -  °F | °C
As of 2:50 AM on Saturday 20 Dec 2014 (Local Time) from EGOV Reporting Station
Broken Clouds Broken Clouds  
Wind Chill: 38°   Ceiling: 4500
Heat Index: 46°   Visibility: 6mi
Dew Point: 37°   Wind: 25mph
Humidity: 71%   Direction: 270°W
Pressure: 30.18"   Gusts: NA
Location:  53.27°N, 4.24°W
Report Text: EGOV 200250Z AUTO 27022KT 9999 FEW025/// BKN045/// 08/03 Q1022
Loading
Personal Weather Stations






























Interactive Weather Map New forecast layout! Learn more

10-Day Weather Forecast

Advertisements
Track Severe Weather on mobile